createdAt,value
2024-03-08T00:00:35.566Z,94493.00
2024-03-08T00:01:35.591Z,94495.00
2024-03-08T00:02:35.632Z,94496.00
2024-03-08T00:03:35.619Z,94497.00
2024-03-08T00:04:35.613Z,94494.00
2024-03-08T00:05:35.670Z,94498.00
2024-03-08T00:06:35.668Z,94497.00
2024-03-08T00:07:35.670Z,94496.00
2024-03-08T00:08:35.701Z,94496.00
2024-03-08T00:09:35.674Z,94496.00
2024-03-08T00:10:35.752Z,94494.00
2024-03-08T00:11:35.888Z,94495.00
2024-03-08T00:12:35.743Z,94493.00
2024-03-08T00:13:35.761Z,94495.00
2024-03-08T00:14:35.778Z,94494.00
2024-03-08T00:15:35.791Z,94494.00
2024-03-08T00:16:35.785Z,94494.00
2024-03-08T00:17:35.862Z,94494.00
2024-03-08T00:18:35.932Z,94491.00
2024-03-08T00:19:35.861Z,94490.00
2024-03-08T00:20:35.909Z,94488.00
2024-03-08T00:21:35.900Z,94487.00
2024-03-08T00:22:35.898Z,94486.00
2024-03-08T00:23:35.955Z,94488.00
2024-03-08T00:24:35.940Z,94485.00
2024-03-08T00:25:35.962Z,94481.00
2024-03-08T00:26:35.985Z,94482.00
2024-03-08T00:27:35.997Z,94481.00
2024-03-08T00:28:36.038Z,94478.00
2024-03-08T00:29:36.048Z,94476.00
2024-03-08T00:30:36.030Z,94474.00
2024-03-08T00:31:36.056Z,94475.00
2024-03-08T00:32:36.183Z,94473.00
2024-03-08T00:33:36.146Z,94474.00
2024-03-08T00:34:36.090Z,94474.00
2024-03-08T00:35:36.130Z,94473.00
2024-03-08T00:36:36.137Z,94471.00
2024-03-08T00:37:36.208Z,94469.00
2024-03-08T00:38:36.171Z,94469.00
2024-03-08T00:39:36.166Z,94468.00
2024-03-08T00:40:36.174Z,94467.00
2024-03-08T00:41:36.278Z,94466.00
2024-03-08T00:42:36.207Z,94466.00
2024-03-08T00:43:36.211Z,94466.00
2024-03-08T00:44:36.277Z,94467.00
2024-03-08T00:45:36.232Z,94466.00
2024-03-08T00:46:36.262Z,94466.00
2024-03-08T00:47:36.376Z,94465.00
2024-03-08T00:48:36.362Z,94463.00
2024-03-08T00:49:36.298Z,94464.00
2024-03-08T00:50:36.375Z,94464.00
2024-03-08T00:51:36.346Z,94463.00
2024-03-08T00:52:36.363Z,94465.00
2024-03-08T00:53:36.434Z,94466.00
2024-03-08T00:54:36.381Z,94465.00
2024-03-08T00:55:36.410Z,94466.00
2024-03-08T00:56:36.450Z,94466.00
2024-03-08T00:57:36.421Z,94466.00
2024-03-08T00:58:36.459Z,94464.00
2024-03-08T00:59:36.513Z,94463.00
2024-03-08T01:00:36.489Z,94464.00
2024-03-08T01:01:36.486Z,94464.00
2024-03-08T01:02:36.582Z,94463.00
2024-03-08T01:03:36.516Z,94463.00
2024-03-08T01:04:36.530Z,94465.00
2024-03-08T01:05:36.544Z,94464.00
2024-03-08T01:06:36.529Z,94465.00
2024-03-08T01:07:36.645Z,94462.00
2024-03-08T01:08:36.595Z,94463.00
2024-03-08T01:09:36.656Z,94462.00
2024-03-08T01:10:36.598Z,94463.00
2024-03-08T01:11:36.728Z,94462.00
2024-03-08T01:12:36.618Z,94460.00
2024-03-08T01:13:37.077Z,94461.00
2024-03-08T01:14:36.674Z,94458.00
2024-03-08T01:15:37.541Z,94459.00
2024-03-08T01:16:36.648Z,94457.00
2024-03-08T01:17:36.822Z,94457.00
2024-03-08T01:18:36.812Z,94455.00
2024-03-08T01:19:36.751Z,94453.00
2024-03-08T01:20:36.745Z,94451.00
2024-03-08T01:21:36.778Z,94452.00
2024-03-08T01:22:37.059Z,94451.00
2024-03-08T01:23:36.773Z,94449.00
2024-03-08T01:24:36.734Z,94450.00
2024-03-08T01:25:36.753Z,94447.00
2024-03-08T01:26:36.823Z,94447.00
2024-03-08T01:27:36.825Z,94444.00
2024-03-08T01:28:36.774Z,94443.00
2024-03-08T01:29:36.803Z,94441.00
2024-03-08T01:30:36.809Z,94441.00
2024-03-08T01:31:36.825Z,94437.00
2024-03-08T01:32:36.948Z,94435.00
2024-03-08T01:33:37.019Z,94438.00
2024-03-08T01:34:36.872Z,94437.00
2024-03-08T01:35:36.926Z,94437.00
2024-03-08T01:36:36.890Z,94435.00
2024-03-08T01:37:36.893Z,94434.00
2024-03-08T01:38:36.958Z,94433.00
2024-03-08T01:39:36.948Z,94431.00
2024-03-08T01:40:36.959Z,94430.00
2024-03-08T01:41:37.133Z,94428.00
2024-03-08T01:42:36.965Z,94429.00
2024-03-08T01:43:37.029Z,94426.00
2024-03-08T01:44:37.006Z,94425.00
2024-03-08T01:45:37.001Z,94428.00
2024-03-08T01:46:37.020Z,94426.00
2024-03-08T01:47:37.153Z,94424.00
2024-03-08T01:48:37.135Z,94422.00
2024-03-08T01:49:37.057Z,94422.00
2024-03-08T01:50:37.114Z,94421.00
2024-03-08T01:51:37.079Z,94418.00
2024-03-08T01:52:37.121Z,94417.00
2024-03-08T01:53:37.128Z,94417.00
2024-03-08T01:54:37.194Z,94415.00
2024-03-08T01:55:37.159Z,94415.00
2024-03-08T01:56:37.151Z,94413.00
2024-03-08T01:57:37.179Z,94411.00
2024-03-08T01:58:37.170Z,94410.00
2024-03-08T01:59:37.190Z,94410.00
2024-03-08T02:00:37.200Z,94409.00
2024-03-08T02:01:37.245Z,94409.00
2024-03-08T02:02:37.238Z,94406.00
2024-03-08T02:03:37.251Z,94409.00
2024-03-08T02:04:37.263Z,94407.00
2024-03-08T02:05:37.372Z,94408.00
2024-03-08T02:06:37.320Z,94406.00
2024-03-08T02:07:37.283Z,94406.00
2024-03-08T02:08:37.375Z,94406.00
2024-03-08T02:09:37.349Z,94404.00
2024-03-08T02:10:37.377Z,94403.00
2024-03-08T02:11:37.880Z,94403.00
2024-03-08T02:12:37.595Z,94402.00
2024-03-08T02:13:37.483Z,94402.00
2024-03-08T02:14:37.548Z,94402.00
2024-03-08T02:15:37.494Z,94401.00
2024-03-08T02:16:37.528Z,94402.00
2024-03-08T02:17:37.633Z,94400.00
2024-03-08T02:18:38.086Z,94398.00
2024-03-08T02:19:37.562Z,94398.00
2024-03-08T02:20:37.596Z,94396.00
2024-03-08T02:21:37.580Z,94394.00
2024-03-08T02:22:37.597Z,94394.00
2024-03-08T02:23:37.637Z,94393.00
2024-03-08T02:24:37.605Z,94390.00
2024-03-08T02:25:37.658Z,94391.00
2024-03-08T02:26:37.661Z,94390.00
2024-03-08T02:27:37.665Z,94391.00
2024-03-08T02:28:37.684Z,94389.00
2024-03-08T02:29:37.748Z,94387.00
2024-03-08T02:30:37.704Z,94390.00
2024-03-08T02:31:37.746Z,94387.00
2024-03-08T02:32:37.824Z,94388.00
2024-03-08T02:33:37.801Z,94388.00
2024-03-08T02:34:37.760Z,94388.00
2024-03-08T02:35:37.783Z,94385.00
2024-03-08T02:36:37.801Z,94387.00
2024-03-08T02:37:37.813Z,94387.00
2024-03-08T02:38:37.854Z,94386.00
2024-03-08T02:39:37.828Z,94387.00
2024-03-08T02:40:37.858Z,94387.00
2024-03-08T02:41:37.901Z,94389.00
2024-03-08T02:42:37.884Z,94389.00
2024-03-08T02:43:37.882Z,94389.00
2024-03-08T02:44:37.928Z,94389.00
2024-03-08T02:45:37.921Z,94388.00
2024-03-08T02:46:37.929Z,94392.00
2024-03-08T02:47:38.045Z,94393.00
2024-03-08T02:48:38.074Z,94392.00
2024-03-08T02:49:37.976Z,94391.00
2024-03-08T02:50:38.094Z,94393.00
2024-03-08T02:51:37.998Z,94391.00
2024-03-08T02:52:38.034Z,94387.00
2024-03-08T02:53:38.097Z,94389.00
2024-03-08T02:54:38.049Z,94388.00
2024-03-08T02:55:38.066Z,94387.00
2024-03-08T02:56:38.113Z,94388.00
2024-03-08T02:57:38.127Z,94386.00
2024-03-08T02:58:38.155Z,94387.00
2024-03-08T02:59:38.173Z,94385.00
2024-03-08T03:00:38.236Z,94386.00
2024-03-08T03:01:38.181Z,94386.00
2024-03-08T03:02:38.239Z,94384.00
2024-03-08T03:03:38.217Z,94384.00
2024-03-08T03:04:38.240Z,94381.00
2024-03-08T03:05:38.296Z,94381.00
2024-03-08T03:06:38.284Z,94381.00
2024-03-08T03:07:38.282Z,94380.00
2024-03-08T03:08:38.325Z,94378.00
2024-03-08T03:09:38.332Z,94380.00
2024-03-08T03:10:38.486Z,94379.00
2024-03-08T03:11:38.403Z,94377.00
2024-03-08T03:12:38.421Z,94377.00
2024-03-08T03:13:38.401Z,94378.00
2024-03-08T03:14:38.456Z,94379.00
2024-03-08T03:15:38.450Z,94378.00
2024-03-08T03:16:38.519Z,94377.00
2024-03-08T03:17:38.613Z,94375.00
2024-03-08T03:18:38.569Z,94375.00
2024-03-08T03:19:38.510Z,94375.00
2024-03-08T03:20:38.623Z,94373.00
2024-03-08T03:21:38.591Z,94373.00
2024-03-08T03:22:38.603Z,94370.00
2024-03-08T03:23:38.622Z,94370.00
2024-03-08T03:24:38.619Z,94370.00
2024-03-08T03:25:38.628Z,94368.00
2024-03-08T03:26:38.720Z,94370.00
2024-03-08T03:27:38.663Z,94372.00
2024-03-08T03:28:38.670Z,94372.00
2024-03-08T03:29:38.707Z,94371.00
2024-03-08T03:30:38.711Z,94368.00
2024-03-08T03:31:38.752Z,94371.00
2024-03-08T03:32:38.820Z,94370.00
2024-03-08T03:33:38.877Z,94367.00
2024-03-08T03:34:38.787Z,94369.00
2024-03-08T03:35:39.402Z,94371.00
2024-03-08T03:36:38.813Z,94369.00
2024-03-08T03:37:38.829Z,94369.00
2024-03-08T03:38:38.857Z,94369.00
2024-03-08T03:39:38.829Z,94369.00
2024-03-08T03:40:38.887Z,94369.00
2024-03-08T03:41:38.878Z,94366.00
2024-03-08T03:42:38.885Z,94366.00
2024-03-08T03:43:38.901Z,94366.00
2024-03-08T03:44:38.950Z,94364.00
2024-03-08T03:45:39.011Z,94362.00
2024-03-08T03:46:38.950Z,94364.00
2024-03-08T03:47:38.995Z,94362.00
2024-03-08T03:48:39.196Z,94362.00
2024-03-08T03:49:39.012Z,94363.00
2024-03-08T03:50:39.033Z,94362.00
2024-03-08T03:51:38.992Z,94361.00
2024-03-08T03:52:39.020Z,94361.00
2024-03-08T03:53:39.043Z,94361.00
2024-03-08T03:54:39.028Z,94363.00
2024-03-08T03:55:39.039Z,94362.00
2024-03-08T03:56:39.185Z,94360.00
2024-03-08T03:57:39.064Z,94359.00
2024-03-08T03:58:39.093Z,94359.00
2024-03-08T03:59:39.102Z,94359.00
2024-03-08T04:00:39.115Z,94359.00
2024-03-08T04:01:39.851Z,94360.00
2024-03-08T04:02:39.181Z,94361.00
2024-03-08T04:03:39.166Z,94362.00
2024-03-08T04:04:39.190Z,94360.00
2024-03-08T04:05:39.318Z,94361.00
2024-03-08T04:06:39.218Z,94359.00
2024-03-08T04:07:39.242Z,94356.00
2024-03-08T04:08:39.287Z,94356.00
2024-03-08T04:09:39.276Z,94354.00
2024-03-08T04:10:39.323Z,94354.00
2024-03-08T04:11:39.399Z,94355.00
2024-03-08T04:12:39.365Z,94356.00
2024-03-08T04:13:39.348Z,94355.00
2024-03-08T04:14:39.418Z,94354.00
2024-03-08T04:15:39.393Z,94353.00
2024-03-08T04:16:39.378Z,94352.00
2024-03-08T04:17:39.576Z,94353.00
2024-03-08T04:18:39.590Z,94351.00
2024-03-08T04:19:46.786Z,94351.00
2024-03-08T04:20:46.848Z,94350.00
2024-03-08T04:21:46.805Z,94348.00
2024-03-08T04:22:46.792Z,94347.00
2024-03-08T04:23:46.878Z,94347.00
2024-03-08T04:24:46.797Z,94345.00
2024-03-08T04:25:46.831Z,94344.00
2024-03-08T04:26:46.829Z,94345.00
2024-03-08T04:27:46.845Z,94347.00
2024-03-08T04:28:46.808Z,94346.00
2024-03-08T04:29:46.835Z,94348.00
2024-03-08T04:30:46.810Z,94347.00
2024-03-08T04:31:54.017Z,94346.00
2024-03-08T04:32:54.186Z,94346.00
2024-03-08T04:33:54.114Z,94347.00
2024-03-08T04:34:53.995Z,94345.00
2024-03-08T04:35:54.080Z,94348.00
2024-03-08T04:36:54.025Z,94346.00
2024-03-08T04:37:54.008Z,94345.00
2024-03-08T04:38:54.068Z,94346.00
2024-03-08T04:39:54.001Z,94344.00
2024-03-08T04:40:54.029Z,94343.00
2024-03-08T04:41:54.019Z,94343.00
2024-03-08T04:42:54.018Z,94343.00
2024-03-08T04:43:54.040Z,94341.00
2024-03-08T04:44:54.010Z,94342.00
2024-03-08T04:45:54.012Z,94341.00
2024-03-08T04:46:54.031Z,94343.00
2024-03-08T04:47:54.124Z,94341.00
2024-03-08T04:48:54.122Z,94341.00
2024-03-08T04:49:54.019Z,94340.00
2024-03-08T04:50:54.036Z,94339.00
2024-03-08T04:51:54.043Z,94337.00
2024-03-08T04:52:54.028Z,94336.00
2024-03-08T04:53:54.057Z,94337.00
2024-03-08T04:54:54.041Z,94339.00
2024-03-08T04:55:54.032Z,94336.00
2024-03-08T04:56:54.042Z,94334.00
2024-03-08T04:57:54.033Z,94338.00
2024-03-08T04:58:54.029Z,94337.00
2024-03-08T04:59:54.061Z,94341.00
2024-03-08T05:00:54.078Z,94339.00
2024-03-08T05:01:54.034Z,94340.00
2024-03-08T05:02:54.141Z,94340.00
2024-03-08T05:03:54.050Z,94339.00
2024-03-08T05:04:54.028Z,94338.00
2024-03-08T05:05:54.061Z,94338.00
2024-03-08T05:06:54.059Z,94336.00
2024-03-08T05:07:54.044Z,94338.00
2024-03-08T05:08:54.083Z,94336.00
2024-03-08T05:09:54.045Z,94338.00
2024-03-08T05:10:54.082Z,94340.00
2024-03-08T05:11:54.063Z,94340.00
2024-03-08T05:12:57.169Z,94340.00
2024-03-08T05:13:54.041Z,94341.00
2024-03-08T05:14:54.067Z,94340.00
2024-03-08T05:15:54.061Z,94342.00
2024-03-08T05:16:54.042Z,94341.00
2024-03-08T05:17:54.125Z,94341.00
2024-03-08T05:18:54.128Z,94339.00
2024-03-08T05:19:54.047Z,94339.00
2024-03-08T05:20:54.108Z,94340.00
2024-03-08T05:21:54.070Z,94338.00
2024-03-08T05:22:54.054Z,94338.00
2024-03-08T05:23:54.105Z,94339.00
2024-03-08T05:24:54.048Z,94338.00
2024-03-08T05:25:54.056Z,94337.00
2024-03-08T05:26:54.062Z,94337.00
2024-03-08T05:27:54.053Z,94338.00
2024-03-08T05:28:54.074Z,94338.00
2024-03-08T05:29:54.074Z,94339.00
2024-03-08T05:30:54.084Z,94340.00
2024-03-08T05:31:54.247Z,94340.00
2024-03-08T05:32:54.251Z,94338.00
2024-03-08T05:33:54.115Z,94338.00
2024-03-08T05:34:54.062Z,94336.00
2024-03-08T05:35:54.122Z,94337.00
2024-03-08T05:36:54.065Z,94337.00
2024-03-08T05:37:54.088Z,94334.00
2024-03-08T05:38:54.104Z,94336.00
2024-03-08T05:39:54.082Z,94335.00
2024-03-08T05:40:54.063Z,94335.00
2024-03-08T05:41:54.166Z,94334.00
2024-03-08T05:42:54.063Z,94334.00
2024-03-08T05:43:54.067Z,94335.00
2024-03-08T05:44:54.134Z,94336.00
2024-03-08T05:45:54.070Z,94336.00
2024-03-08T05:46:54.076Z,94335.00
2024-03-08T05:47:54.228Z,94334.00
2024-03-08T05:48:54.204Z,94336.00
2024-03-08T05:49:54.153Z,94337.00
2024-03-08T05:50:54.231Z,94338.00
2024-03-08T05:51:54.276Z,94337.00
2024-03-08T05:52:54.308Z,94339.00
2024-03-08T05:53:54.453Z,94340.00
2024-03-08T05:54:54.384Z,94339.00
2024-03-08T05:55:54.439Z,94340.00
2024-03-08T05:56:54.598Z,94340.00
2024-03-08T05:57:54.535Z,94339.00
2024-03-08T05:58:54.603Z,94340.00
2024-03-08T05:59:54.709Z,94341.00
2024-03-08T06:00:54.818Z,94339.00
2024-03-08T06:01:54.772Z,94340.00
2024-03-08T06:02:54.861Z,94337.00
2024-03-08T06:03:54.828Z,94339.00
2024-03-08T06:04:54.883Z,94338.00
2024-03-08T06:05:54.970Z,94339.00
2024-03-08T06:06:54.973Z,94339.00
2024-03-08T06:07:54.995Z,94338.00
2024-03-08T06:08:55.124Z,94337.00
2024-03-08T06:09:55.088Z,94338.00
2024-03-08T06:10:55.237Z,94339.00
2024-03-08T06:11:55.742Z,94339.00
2024-03-08T06:12:55.203Z,94339.00
2024-03-08T06:13:55.243Z,94339.00
2024-03-08T06:14:55.321Z,94340.00
2024-03-08T06:15:55.285Z,94341.00
2024-03-08T06:16:55.344Z,94341.00
2024-03-08T06:17:55.417Z,94339.00
2024-03-08T06:18:55.473Z,94337.00
2024-03-08T06:19:55.469Z,94337.00
2024-03-08T06:20:56.545Z,94340.00
2024-03-08T06:21:55.498Z,94340.00
2024-03-08T06:22:55.521Z,94341.00
2024-03-08T06:23:55.551Z,94343.00
2024-03-08T06:24:55.675Z,94346.00
2024-03-08T06:25:55.654Z,94348.00
2024-03-08T06:26:55.757Z,94346.00
2024-03-08T06:27:55.766Z,94346.00
2024-03-08T06:28:55.741Z,94347.00
2024-03-08T06:29:55.805Z,94350.00
2024-03-08T06:30:55.789Z,94349.00
2024-03-08T06:31:57.248Z,94353.00
2024-03-08T06:32:56.137Z,94356.00
2024-03-08T06:33:56.770Z,94357.00
2024-03-08T06:34:55.924Z,94358.00
2024-03-08T06:35:56.022Z,94356.00
2024-03-08T06:36:55.964Z,94354.00
2024-03-08T06:37:55.952Z,94354.00
2024-03-08T06:38:56.056Z,94354.00
2024-03-08T06:39:56.034Z,94356.00
2024-03-08T06:40:56.170Z,94358.00
2024-03-08T06:41:56.155Z,94355.00
2024-03-08T06:42:56.195Z,94352.00
2024-03-08T06:43:56.327Z,94351.00
2024-03-08T06:44:56.418Z,94353.00
2024-03-08T06:45:56.364Z,94355.00
2024-03-08T06:46:59.550Z,94356.00
2024-03-08T06:47:56.496Z,94359.00
2024-03-08T06:48:56.472Z,94359.00
2024-03-08T06:49:56.374Z,94360.00
2024-03-08T06:50:56.475Z,94358.00
2024-03-08T06:51:56.371Z,94358.00
2024-03-08T06:52:56.401Z,94359.00
2024-03-08T06:53:56.519Z,94356.00
2024-03-08T06:54:56.378Z,94358.00
2024-03-08T06:55:56.387Z,94356.00
2024-03-08T06:56:56.414Z,94358.00
2024-03-08T06:57:56.441Z,94357.00
2024-03-08T06:58:56.412Z,94357.00
2024-03-08T06:59:56.456Z,94356.00
2024-03-08T07:00:56.416Z,94355.00
2024-03-08T07:01:56.399Z,94353.00
2024-03-08T07:02:56.401Z,94352.00
2024-03-08T07:03:56.383Z,94349.00
2024-03-08T07:04:56.388Z,94350.00
2024-03-08T07:05:56.472Z,94348.00
2024-03-08T07:06:56.388Z,94345.00
2024-03-08T07:07:56.395Z,94346.00
2024-03-08T07:08:56.453Z,94345.00
2024-03-08T07:09:56.375Z,94344.00
2024-03-08T07:10:56.414Z,94345.00
2024-03-08T07:11:56.492Z,94342.00
2024-03-08T07:12:56.421Z,94339.00
2024-03-08T07:13:56.462Z,94341.00
2024-03-08T07:14:56.427Z,94339.00
2024-03-08T07:15:56.464Z,94339.00
2024-03-08T07:16:56.413Z,94337.00
2024-03-08T07:17:56.471Z,94338.00
2024-03-08T07:18:56.553Z,94337.00
2024-03-08T07:19:56.421Z,94336.00
2024-03-08T07:20:56.465Z,94335.00
2024-03-08T07:21:56.421Z,94336.00
2024-03-08T07:22:56.393Z,94336.00
2024-03-08T07:23:56.488Z,94336.00
2024-03-08T07:24:56.497Z,94335.00
2024-03-08T07:25:56.538Z,94333.00
2024-03-08T07:26:56.684Z,94331.00
2024-03-08T07:27:56.646Z,94329.00
2024-03-08T07:28:56.694Z,94327.00
2024-03-08T07:30:56.759Z,94328.00
2024-03-08T07:31:56.751Z,94328.00
2024-03-08T07:32:57.290Z,94328.00
2024-03-08T07:33:56.776Z,94331.00
2024-03-08T07:34:56.752Z,94327.00
2024-03-08T07:35:56.759Z,94325.00
2024-03-08T07:36:56.779Z,94326.00
2024-03-08T07:37:56.764Z,94325.00
2024-03-08T07:38:56.786Z,94324.00
2024-03-08T07:39:56.763Z,94326.00
2024-03-08T07:40:56.748Z,94324.00
2024-03-08T07:41:56.765Z,94326.00
2024-03-08T07:42:56.749Z,94324.00
2024-03-08T07:43:56.754Z,94325.00
2024-03-08T07:44:56.800Z,94323.00
2024-03-08T07:45:56.770Z,94321.00
2024-03-08T07:46:58.322Z,94321.00
2024-03-08T07:47:56.961Z,94321.00
2024-03-08T07:48:56.816Z,94317.00
2024-03-08T07:49:56.791Z,94318.00
2024-03-08T07:50:57.060Z,94317.00
2024-03-08T07:51:56.765Z,94315.00
2024-03-08T07:52:57.220Z,94316.00
2024-03-08T07:54:56.780Z,94313.00
2024-03-08T07:55:56.786Z,94310.00
2024-03-08T07:56:56.759Z,94308.00
2024-03-08T07:57:56.783Z,94307.00
2024-03-08T07:58:56.944Z,94304.00
2024-03-08T07:59:56.825Z,94302.00
2024-03-08T08:00:56.911Z,94300.00
2024-03-08T08:01:57.059Z,94299.00
2024-03-08T08:02:57.120Z,94298.00
2024-03-08T08:03:57.176Z,94292.00
2024-03-08T08:04:57.240Z,94293.00
2024-03-08T08:05:57.282Z,94289.00
2024-03-08T08:06:57.357Z,94287.00
2024-03-08T08:07:57.863Z,94286.00
2024-03-08T08:08:57.460Z,94284.00
2024-03-08T08:09:57.530Z,94282.00
2024-03-08T08:10:57.764Z,94280.00
2024-03-08T08:11:57.653Z,94279.00
2024-03-08T08:12:57.753Z,94277.00
2024-03-08T08:13:57.821Z,94274.00
2024-03-08T08:14:57.872Z,94273.00
2024-03-08T08:15:57.942Z,94270.00
2024-03-08T08:16:57.988Z,94266.00
2024-03-08T08:17:58.119Z,94264.00
2024-03-08T08:18:58.150Z,94262.00
2024-03-08T08:19:58.240Z,94260.00
2024-03-08T08:20:58.250Z,94260.00
2024-03-08T08:21:58.306Z,94257.00
2024-03-08T08:22:58.396Z,94255.00
2024-03-08T08:23:58.444Z,94254.00
2024-03-08T08:24:58.521Z,94253.00
2024-03-08T08:25:58.643Z,94253.00
2024-03-08T08:26:58.651Z,94249.00
2024-03-08T08:27:58.724Z,94247.00
2024-03-08T08:28:58.785Z,94245.00
2024-03-08T08:29:58.861Z,94244.00
2024-03-08T08:30:58.939Z,94242.00
2024-03-08T08:31:59.754Z,94239.00
2024-03-08T08:32:59.305Z,94239.00
2024-03-08T08:33:59.141Z,94236.00
2024-03-08T08:34:59.264Z,94236.00
2024-03-08T08:35:59.259Z,94232.00
2024-03-08T08:36:59.339Z,94231.00
2024-03-08T08:37:59.398Z,94230.00
2024-03-08T08:38:59.460Z,94232.00
2024-03-08T08:39:59.503Z,94230.00
2024-03-08T08:40:59.600Z,94234.00
2024-03-08T08:41:59.775Z,94232.00
2024-03-08T08:42:59.767Z,94232.00
2024-03-08T08:44:08.870Z,94233.00
2024-03-08T08:45:09.078Z,94232.00
2024-03-08T08:46:00.795Z,94231.00
2024-03-08T08:47:06.276Z,94229.00
2024-03-08T08:48:01.306Z,94229.00
2024-03-08T08:48:59.816Z,94228.00
2024-03-08T08:49:59.822Z,94225.00
2024-03-08T08:50:59.810Z,94224.00
2024-03-08T08:52:06.470Z,94219.00
2024-03-08T08:53:00.868Z,94219.00
2024-03-08T08:53:59.819Z,94216.00
2024-03-08T08:54:59.842Z,94213.00
2024-03-08T08:55:59.825Z,94211.00
2024-03-08T08:56:59.853Z,94211.00
2024-03-08T08:57:59.806Z,94209.00
2024-03-08T08:58:59.875Z,94210.00
2024-03-08T08:59:59.831Z,94208.00
2024-03-08T09:00:59.899Z,94205.00
2024-03-08T09:02:00.002Z,94205.00
2024-03-08T09:02:59.981Z,94200.00
2024-03-08T09:04:00.045Z,94202.00
2024-03-08T09:05:00.289Z,94199.00
2024-03-08T09:06:00.163Z,94198.00
2024-03-08T09:07:00.789Z,94195.00
2024-03-08T09:08:00.417Z,94196.00
2024-03-08T09:09:02.362Z,94193.00
2024-03-08T09:10:00.930Z,94192.00
2024-03-08T09:11:01.468Z,94190.00
2024-03-08T09:12:00.657Z,94187.00
2024-03-08T09:13:00.341Z,94187.00
2024-03-08T09:14:00.517Z,94183.00
2024-03-08T09:15:00.369Z,94180.00
2024-03-08T09:16:00.369Z,94178.00
2024-03-08T09:17:00.416Z,94174.00
2024-03-08T09:18:00.618Z,94175.00
2024-03-08T09:19:00.463Z,94172.00
2024-03-08T09:20:00.541Z,94171.00
2024-03-08T09:21:00.489Z,94169.00
2024-03-08T09:22:00.599Z,94170.00
2024-03-08T09:23:00.697Z,94167.00
2024-03-08T09:24:00.735Z,94166.00
2024-03-08T09:25:00.763Z,94164.00
2024-03-08T09:26:00.951Z,94162.00
2024-03-08T09:27:00.893Z,94161.00
2024-03-08T09:28:00.861Z,94160.00
2024-03-08T09:29:00.952Z,94156.00
2024-03-08T09:30:00.886Z,94153.00
2024-03-08T09:31:00.959Z,94148.00
2024-03-08T09:32:00.917Z,94149.00
2024-03-08T09:33:00.978Z,94145.00
2024-03-08T09:34:00.980Z,94142.00
2024-03-08T09:35:01.052Z,94142.00
2024-03-08T09:37:07.707Z,94138.00
2024-03-08T09:38:07.641Z,94136.00
2024-03-08T09:39:07.672Z,94138.00
2024-03-08T09:40:07.678Z,94138.00
2024-03-08T09:41:07.661Z,94133.00
2024-03-08T09:42:07.714Z,94134.00
2024-03-08T09:43:07.656Z,94133.00
2024-03-08T09:44:07.666Z,94129.00
2024-03-08T09:45:07.733Z,94125.00
2024-03-08T09:46:07.675Z,94126.00
2024-03-08T09:47:07.667Z,94124.00
2024-03-08T09:48:07.685Z,94123.00
2024-03-08T09:49:07.829Z,94124.00
2024-03-08T09:50:07.656Z,94125.00
2024-03-08T09:51:07.668Z,94125.00
2024-03-08T09:52:07.703Z,94121.00
2024-03-08T09:53:07.732Z,94121.00
2024-03-08T09:54:14.476Z,94118.00
2024-03-08T09:55:08.793Z,94117.00
2024-03-08T09:56:07.765Z,94117.00
2024-03-08T09:57:07.774Z,94113.00
2024-03-08T09:58:07.775Z,94113.00
2024-03-08T09:59:07.844Z,94110.00
2024-03-08T10:00:07.784Z,94110.00
2024-03-08T10:01:07.835Z,94109.00
2024-03-08T10:02:07.875Z,94105.00
2024-03-08T10:03:07.773Z,94101.00
2024-03-08T10:04:07.838Z,94101.00
2024-03-08T10:05:07.829Z,94098.00
2024-03-08T10:06:07.851Z,94096.00
2024-03-08T10:07:07.892Z,94093.00
2024-03-08T10:08:07.972Z,94092.00
2024-03-08T10:09:07.985Z,94093.00
2024-03-08T10:10:08.030Z,94094.00
2024-03-08T10:11:08.223Z,94094.00
2024-03-08T10:12:08.133Z,94097.00
2024-03-08T10:13:08.139Z,94097.00
2024-03-08T10:14:08.203Z,94096.00
2024-03-08T10:15:08.234Z,94097.00
2024-03-08T10:16:08.314Z,94097.00
2024-03-08T10:17:08.315Z,94094.00
2024-03-08T10:18:08.402Z,94093.00
2024-03-08T10:19:08.407Z,94091.00
2024-03-08T10:20:08.414Z,94089.00
2024-03-08T10:21:08.693Z,94090.00
2024-03-08T10:22:09.276Z,94087.00
2024-03-08T10:23:11.574Z,94086.00
2024-03-08T10:24:08.501Z,94086.00
2024-03-08T10:25:08.523Z,94080.00
2024-03-08T10:26:08.591Z,94079.00
2024-03-08T10:27:08.588Z,94079.00
2024-03-08T10:28:08.573Z,94077.00
2024-03-08T10:29:08.777Z,94075.00
2024-03-08T10:30:08.564Z,94073.00
2024-03-08T10:31:08.538Z,94074.00
2024-03-08T10:32:08.671Z,94072.00
2024-03-08T10:33:08.603Z,94072.00
2024-03-08T10:34:08.566Z,94070.00
2024-03-08T10:35:08.541Z,94068.00
2024-03-08T10:36:08.520Z,94069.00
2024-03-08T10:37:08.525Z,94063.00
2024-03-08T10:38:08.530Z,94067.00
2024-03-08T10:39:08.538Z,94066.00
2024-03-08T10:40:08.508Z,94063.00
2024-03-08T10:41:08.586Z,94062.00
2024-03-08T10:42:08.548Z,94064.00
2024-03-08T10:43:08.521Z,94062.00
2024-03-08T10:44:08.637Z,94059.00
2024-03-08T10:45:08.528Z,94059.00
2024-03-08T10:46:08.520Z,94057.00
2024-03-08T10:47:08.524Z,94056.00
2024-03-08T10:48:08.606Z,94054.00
2024-03-08T10:49:08.774Z,94051.00
2024-03-08T10:50:08.523Z,94048.00
2024-03-08T10:51:08.830Z,94046.00
2024-03-08T10:52:08.534Z,94045.00
2024-03-08T10:53:08.531Z,94043.00
2024-03-08T10:54:08.538Z,94043.00
2024-03-08T10:55:08.532Z,94041.00
2024-03-08T10:56:08.730Z,94040.00
2024-03-08T10:57:08.522Z,94040.00
2024-03-08T10:58:08.529Z,94037.00
2024-03-08T10:59:08.547Z,94038.00
2024-03-08T11:00:08.520Z,94034.00
2024-03-08T11:01:08.608Z,94033.00
2024-03-08T11:02:08.604Z,94032.00
2024-03-08T11:03:08.522Z,94031.00
2024-03-08T11:04:08.552Z,94028.00
2024-03-08T11:05:08.561Z,94028.00
2024-03-08T11:06:08.546Z,94024.00
2024-03-08T11:07:08.581Z,94024.00
2024-03-08T11:08:08.533Z,94021.00
2024-03-08T11:09:08.606Z,94021.00
2024-03-08T11:10:08.696Z,94018.00
2024-03-08T11:11:08.894Z,94018.00
2024-03-08T11:12:08.855Z,94018.00
2024-03-08T11:13:08.874Z,94015.00
2024-03-08T11:14:08.964Z,94015.00
2024-03-08T11:15:09.043Z,94016.00
2024-03-08T11:16:09.069Z,94014.00
2024-03-08T11:17:09.182Z,94010.00
2024-03-08T11:18:09.287Z,94008.00
2024-03-08T11:19:09.307Z,94008.00
2024-03-08T11:20:09.311Z,94007.00
2024-03-08T11:21:09.379Z,94005.00
2024-03-08T11:22:09.549Z,94004.00
2024-03-08T11:23:11.828Z,94000.00
2024-03-08T11:24:09.617Z,93999.00
2024-03-08T11:25:09.677Z,93997.00
2024-03-08T11:26:09.730Z,93994.00
2024-03-08T11:27:09.763Z,93991.00
2024-03-08T11:28:09.956Z,93992.00
2024-03-08T11:29:09.875Z,93988.00
2024-03-08T11:30:09.967Z,93987.00
2024-03-08T11:31:10.005Z,93985.00
2024-03-08T11:32:10.148Z,93981.00
2024-03-08T11:33:10.884Z,93980.00
2024-03-08T11:34:10.226Z,93979.00
2024-03-08T11:35:10.237Z,93979.00
2024-03-08T11:36:10.356Z,93977.00
2024-03-08T11:37:10.336Z,93977.00
2024-03-08T11:38:10.352Z,93973.00
2024-03-08T11:39:10.417Z,93970.00
2024-03-08T11:40:10.405Z,93971.00
2024-03-08T11:41:10.509Z,93970.00
2024-03-08T11:42:10.492Z,93968.00
2024-03-08T11:43:10.506Z,93969.00
2024-03-08T11:44:10.813Z,93966.00
2024-03-08T11:45:10.610Z,93963.00
2024-03-08T11:46:10.620Z,93961.00
2024-03-08T11:47:10.670Z,93961.00
2024-03-08T11:48:10.692Z,93959.00